EZS1484 LSGG-LGSR
Flight info
| Callsign | EZS1484 |
|---|---|
| Flight time | 2h 45m |
| Altitude | 37000 |
| Route | MEDAM DCT NITAM DCT MOGBO DCT KODOK DCT LATAN DCT TRL UM601 PEXAN |
| Aircraft | A320/M-SDE2E3FGHIJ1RWXYZ/LB1 |
Departure
| Time | 2026-04-20 13:01 |
|---|---|
| Airport | Geneva International Airport (LSGG) |
Arrival
| Time | 2026-04-20 15:46 |
|---|---|
| Airport | Santorini International Airport (LGSR) |
| Time | Latitude | Longitude | Altitude | Speed | Heading |
|---|---|---|---|---|---|
| 2026-04-20 12:25 | 46.23105 | 6.10663 | 1393 ft | 0 kts | 135° |
| 2026-04-20 12:51 | 46.23106 | 6.10661 | 1393 ft | 2 kts | 135° |
| 2026-04-20 12:52 | 46.23125 | 6.10637 | 1402 ft | 4 kts | 154° |
| 2026-04-20 12:52 | 46.23147 | 6.10632 | 1402 ft | 4 kts | 222° |
| 2026-04-20 12:52 | 46.23161 | 6.10652 | 1398 ft | 0 kts | 225° |
| 2026-04-20 12:55 | 46.23145 | 6.10628 | 1403 ft | 6 kts | 225° |
| 2026-04-20 12:56 | 46.23101 | 6.10564 | 1401 ft | 12 kts | 225° |
| 2026-04-20 12:56 | 46.23032 | 6.10462 | 1396 ft | 17 kts | 225° |
| 2026-04-20 12:56 | 46.22952 | 6.10341 | 1399 ft | 8 kts | 235° |
| 2026-04-20 12:56 | 46.22985 | 6.10259 | 1398 ft | 13 kts | 316° |
| 2026-04-20 12:57 | 46.23045 | 6.10174 | 1399 ft | 12 kts | 315° |
| 2026-04-20 12:57 | 46.23031 | 6.10091 | 1394 ft | 9 kts | 221° |
| 2026-04-20 12:57 | 46.22990 | 6.10030 | 1402 ft | 8 kts | 226° |
| 2026-04-20 12:57 | 46.22950 | 6.09970 | 1401 ft | 11 kts | 225° |
| 2026-04-20 12:58 | 46.22882 | 6.09870 | 1401 ft | 17 kts | 224° |
| 2026-04-20 12:58 | 46.22785 | 6.09730 | 1397 ft | 23 kts | 226° |
| 2026-04-20 12:58 | 46.22660 | 6.09546 | 1401 ft | 28 kts | 225° |
| 2026-04-20 12:58 | 46.22557 | 6.09358 | 1403 ft | 8 kts | 259° |
| 2026-04-20 12:59 | 46.22548 | 6.09291 | 1414 ft | 5 kts | 261° |
| 2026-04-20 12:59 | 46.22548 | 6.09248 | 1412 ft | 5 kts | 276° |
| 2026-04-20 12:59 | 46.22560 | 6.09178 | 1415 ft | 9 kts | 304° |
| 2026-04-20 12:59 | 46.22636 | 6.09179 | 1416 ft | 15 kts | 36° |
| 2026-04-20 13:00 | 46.22671 | 6.09230 | 1417 ft | 9 kts | 46° |
| 2026-04-20 13:00 | 46.22893 | 6.09556 | 1415 ft | 81 kts | 46° |
| 2026-04-20 13:00 | 46.23441 | 6.10363 | 1397 ft | 144 kts | 45° |
| 2026-04-20 13:00 | 46.24255 | 6.11559 | 1607 ft | 180 kts | 46° |
| 2026-04-20 13:01 | 46.25137 | 6.12850 | 2604 ft | 179 kts | 44° |
| 2026-04-20 13:01 | 46.26021 | 6.14154 | 3319 ft | 186 kts | 44° |
| 2026-04-20 13:01 | 46.26978 | 6.15565 | 3593 ft | 208 kts | 44° |
| 2026-04-20 13:01 | 46.28040 | 6.17131 | 3914 ft | 228 kts | 44° |
| 2026-04-20 13:02 | 46.29218 | 6.18863 | 4240 ft | 252 kts | 44° |
| 2026-04-20 13:02 | 46.30470 | 6.20700 | 4860 ft | 264 kts | 44° |
| 2026-04-20 13:02 | 46.31775 | 6.22615 | 5654 ft | 270 kts | 44° |
| 2026-04-20 13:02 | 46.33105 | 6.24572 | 6465 ft | 275 kts | 44° |
| 2026-04-20 13:03 | 46.34454 | 6.26569 | 7212 ft | 280 kts | 47° |
| 2026-04-20 13:03 | 46.35488 | 6.28972 | 7967 ft | 287 kts | 70° |
| 2026-04-20 13:03 | 46.35754 | 6.31854 | 8759 ft | 292 kts | 96° |
| 2026-04-20 13:03 | 46.35132 | 6.34653 | 9536 ft | 296 kts | 123° |
| 2026-04-20 13:04 | 46.33745 | 6.36781 | 10279 ft | 297 kts | 149° |
| 2026-04-20 13:04 | 46.31841 | 6.38074 | 10744 ft | 312 kts | 161° |
| 2026-04-20 13:04 | 46.29732 | 6.39231 | 11018 ft | 334 kts | 162° |
| 2026-04-20 13:04 | 46.27508 | 6.40409 | 11558 ft | 343 kts | 162° |
| 2026-04-20 13:05 | 46.25239 | 6.41602 | 12288 ft | 349 kts | 162° |
| 2026-04-20 13:05 | 46.22936 | 6.42818 | 12943 ft | 355 kts | 162° |
| 2026-04-20 13:05 | 46.20596 | 6.44068 | 13616 ft | 361 kts | 162° |
| 2026-04-20 13:05 | 46.18263 | 6.45323 | 14240 ft | 365 kts | 162° |
| 2026-04-20 13:06 | 46.15869 | 6.46614 | 14850 ft | 369 kts | 163° |
| 2026-04-20 13:06 | 46.13442 | 6.47923 | 15458 ft | 373 kts | 163° |
| 2026-04-20 13:06 | 46.11005 | 6.49237 | 16088 ft | 375 kts | 163° |
| 2026-04-20 13:06 | 46.08543 | 6.50565 | 16696 ft | 378 kts | 163° |
| 2026-04-20 13:07 | 46.06062 | 6.51899 | 17282 ft | 382 kts | 164° |
| 2026-04-20 13:07 | 46.03559 | 6.53243 | 17865 ft | 385 kts | 164° |
| 2026-04-20 13:07 | 46.01066 | 6.54581 | 18458 ft | 388 kts | 164° |
| 2026-04-20 13:07 | 45.98515 | 6.55949 | 18970 ft | 392 kts | 164° |
| 2026-04-20 13:08 | 45.95944 | 6.57325 | 19474 ft | 395 kts | 164° |
| 2026-04-20 13:08 | 45.93348 | 6.58710 | 19898 ft | 399 kts | 165° |
| 2026-04-20 13:08 | 45.90757 | 6.60088 | 20339 ft | 403 kts | 165° |
| 2026-04-20 13:08 | 45.88110 | 6.61495 | 20791 ft | 406 kts | 164° |
| 2026-04-20 13:09 | 45.85451 | 6.62910 | 21253 ft | 410 kts | 164° |
| 2026-04-20 13:09 | 45.82778 | 6.64335 | 21734 ft | 413 kts | 164° |
| 2026-04-20 13:09 | 45.80068 | 6.65779 | 22195 ft | 416 kts | 164° |
| 2026-04-20 13:09 | 45.77340 | 6.67226 | 22671 ft | 419 kts | 165° |
| 2026-04-20 13:10 | 45.74583 | 6.68688 | 23136 ft | 423 kts | 164° |
| 2026-04-20 13:10 | 45.71809 | 6.70160 | 23608 ft | 426 kts | 164° |
| 2026-04-20 13:10 | 45.69057 | 6.71622 | 23997 ft | 428 kts | 164° |
| 2026-04-20 13:10 | 45.66242 | 6.73120 | 24352 ft | 431 kts | 165° |
| 2026-04-20 13:11 | 45.63417 | 6.74615 | 24681 ft | 433 kts | 165° |
| 2026-04-20 13:11 | 45.60577 | 6.76110 | 25022 ft | 435 kts | 165° |
| 2026-04-20 13:11 | 45.57715 | 6.77611 | 25387 ft | 439 kts | 165° |
| 2026-04-20 13:11 | 45.54876 | 6.79101 | 25756 ft | 441 kts | 165° |
| 2026-04-20 13:12 | 45.51979 | 6.80625 | 26121 ft | 444 kts | 165° |
| 2026-04-20 13:12 | 45.49069 | 6.82158 | 26467 ft | 446 kts | 165° |
| 2026-04-20 13:12 | 45.46149 | 6.83696 | 26805 ft | 449 kts | 165° |
| 2026-04-20 13:12 | 45.43193 | 6.85251 | 27149 ft | 452 kts | 165° |
| 2026-04-20 13:13 | 45.40267 | 6.86786 | 27520 ft | 454 kts | 165° |
| 2026-04-20 13:13 | 45.37293 | 6.88342 | 27864 ft | 456 kts | 165° |
| 2026-04-20 13:13 | 45.35277 | 6.89395 | 28073 ft | 458 kts | 165° |
| 2026-04-20 13:13 | 45.31297 | 6.91471 | 28531 ft | 460 kts | 165° |
| 2026-04-20 13:14 | 45.28322 | 6.93260 | 28852 ft | 468 kts | 157° |
| 2026-04-20 13:14 | 45.26435 | 6.94805 | 29085 ft | 473 kts | 151° |
| 2026-04-20 13:14 | 45.23802 | 6.97652 | 29403 ft | 481 kts | 141° |
| 2026-04-20 13:14 | 45.21383 | 7.00964 | 29712 ft | 485 kts | 139° |
| 2026-04-20 13:15 | 45.18972 | 7.04301 | 30014 ft | 487 kts | 139° |
| 2026-04-20 13:15 | 45.16634 | 7.07524 | 30278 ft | 489 kts | 139° |
| 2026-04-20 13:15 | 45.14184 | 7.10889 | 30541 ft | 491 kts | 139° |
| 2026-04-20 13:15 | 45.11738 | 7.14265 | 30798 ft | 493 kts | 136° |
| 2026-04-20 13:16 | 45.09529 | 7.17951 | 31069 ft | 497 kts | 128° |
| 2026-04-20 13:16 | 45.07545 | 7.21960 | 31448 ft | 497 kts | 127° |
| 2026-04-20 13:16 | 45.05566 | 7.25972 | 31817 ft | 495 kts | 127° |
| 2026-04-20 13:16 | 45.03585 | 7.29965 | 32153 ft | 494 kts | 127° |
| 2026-04-20 13:17 | 45.01605 | 7.33932 | 32454 ft | 494 kts | 127° |
| 2026-04-20 13:17 | 44.99726 | 7.38000 | 32748 ft | 495 kts | 120° |
| 2026-04-20 13:17 | 44.98261 | 7.42350 | 33030 ft | 496 kts | 111° |
| 2026-04-20 13:17 | 44.97242 | 7.46997 | 33297 ft | 495 kts | 102° |
| 2026-04-20 13:18 | 44.96540 | 7.51754 | 33616 ft | 495 kts | 101° |
| 2026-04-20 13:18 | 44.95836 | 7.56518 | 33917 ft | 494 kts | 101° |
| 2026-04-20 13:18 | 44.95121 | 7.61273 | 34195 ft | 494 kts | 101° |
| 2026-04-20 13:18 | 44.94194 | 7.65949 | 34455 ft | 494 kts | 110° |
| 2026-04-20 13:19 | 44.92844 | 7.70335 | 34705 ft | 493 kts | 119° |
| 2026-04-20 13:19 | 44.91146 | 7.74556 | 34940 ft | 492 kts | 121° |
| 2026-04-20 13:19 | 44.89430 | 7.78733 | 35179 ft | 492 kts | 121° |
| 2026-04-20 13:19 | 44.87713 | 7.82915 | 35419 ft | 492 kts | 121° |
| 2026-04-20 13:20 | 44.86000 | 7.87090 | 35656 ft | 491 kts | 121° |
| 2026-04-20 13:20 | 44.84305 | 7.91212 | 35880 ft | 491 kts | 121° |
| 2026-04-20 13:20 | 44.82590 | 7.95369 | 36113 ft | 490 kts | 121° |
| 2026-04-20 13:20 | 44.80869 | 7.99531 | 36332 ft | 490 kts | 121° |
| 2026-04-20 13:21 | 44.79151 | 8.03680 | 36577 ft | 490 kts | 121° |
| 2026-04-20 13:21 | 44.77453 | 8.07777 | 36819 ft | 489 kts | 122° |
| 2026-04-20 13:21 | 44.75728 | 8.11931 | 36926 ft | 489 kts | 121° |
| 2026-04-20 13:22 | 44.72295 | 8.20190 | 36938 ft | 487 kts | 121° |
| 2026-04-20 13:22 | 44.68863 | 8.28410 | 36944 ft | 487 kts | 122° |
| 2026-04-20 13:23 | 44.65453 | 8.36575 | 36948 ft | 487 kts | 122° |
| 2026-04-20 13:23 | 44.62009 | 8.44792 | 36953 ft | 488 kts | 122° |
| 2026-04-20 13:24 | 44.58554 | 8.53002 | 36963 ft | 488 kts | 122° |
| 2026-04-20 13:24 | 44.55106 | 8.61153 | 36970 ft | 488 kts | 122° |
| 2026-04-20 13:25 | 44.51640 | 8.69353 | 36972 ft | 488 kts | 122° |
| 2026-04-20 13:25 | 44.48170 | 8.77541 | 36975 ft | 488 kts | 122° |
| 2026-04-20 13:26 | 44.44689 | 8.85703 | 36976 ft | 488 kts | 122° |
| 2026-04-20 13:26 | 44.41213 | 8.93833 | 36977 ft | 488 kts | 122° |
| 2026-04-20 13:27 | 44.37729 | 9.01988 | 36982 ft | 488 kts | 122° |
| 2026-04-20 13:27 | 44.34253 | 9.10100 | 36983 ft | 488 kts | 122° |
| 2026-04-20 13:28 | 44.30756 | 9.18238 | 36980 ft | 487 kts | 122° |
| 2026-04-20 13:28 | 44.27253 | 9.26350 | 36981 ft | 487 kts | 122° |
| 2026-04-20 13:29 | 44.23746 | 9.34452 | 36977 ft | 487 kts | 122° |
| 2026-04-20 13:29 | 44.20256 | 9.42499 | 36982 ft | 487 kts | 122° |
| 2026-04-20 13:30 | 44.16736 | 9.50590 | 36982 ft | 487 kts | 122° |
| 2026-04-20 13:30 | 44.13227 | 9.58609 | 36987 ft | 487 kts | 122° |
| 2026-04-20 13:31 | 44.09687 | 9.66674 | 36990 ft | 487 kts | 122° |
| 2026-04-20 13:31 | 44.06161 | 9.74724 | 36992 ft | 487 kts | 122° |
| 2026-04-20 13:32 | 44.02648 | 9.82720 | 36992 ft | 487 kts | 122° |
| 2026-04-20 13:32 | 43.99106 | 9.90759 | 36991 ft | 487 kts | 123° |
| 2026-04-20 13:33 | 43.95552 | 9.98771 | 36988 ft | 487 kts | 123° |
| 2026-04-20 13:33 | 43.92014 | 10.06736 | 36981 ft | 487 kts | 123° |
| 2026-04-20 13:34 | 43.88453 | 10.14739 | 36981 ft | 487 kts | 123° |
| 2026-04-20 13:34 | 43.84886 | 10.22738 | 36982 ft | 487 kts | 123° |
| 2026-04-20 13:35 | 43.81323 | 10.30680 | 36986 ft | 487 kts | 123° |
| 2026-04-20 13:35 | 43.77733 | 10.38669 | 36988 ft | 487 kts | 123° |
| 2026-04-20 13:36 | 43.74172 | 10.46590 | 36988 ft | 488 kts | 123° |
| 2026-04-20 13:36 | 43.70580 | 10.54570 | 36990 ft | 488 kts | 123° |
| 2026-04-20 13:37 | 43.67005 | 10.62487 | 36984 ft | 488 kts | 123° |
| 2026-04-20 13:37 | 43.63391 | 10.70436 | 36977 ft | 488 kts | 123° |
| 2026-04-20 13:38 | 43.59768 | 10.78389 | 36974 ft | 488 kts | 123° |
| 2026-04-20 13:38 | 43.56170 | 10.86277 | 36968 ft | 488 kts | 123° |
| 2026-04-20 13:39 | 43.52548 | 10.94198 | 36969 ft | 488 kts | 123° |
| 2026-04-20 13:39 | 43.48906 | 11.02129 | 36973 ft | 488 kts | 123° |
| 2026-04-20 13:40 | 43.45284 | 11.09991 | 36975 ft | 488 kts | 123° |
| 2026-04-20 13:40 | 43.41634 | 11.17918 | 36981 ft | 488 kts | 123° |
| 2026-04-20 13:41 | 43.38011 | 11.25774 | 36986 ft | 488 kts | 123° |
| 2026-04-20 13:41 | 43.34354 | 11.33665 | 36988 ft | 488 kts | 123° |
| 2026-04-20 13:42 | 43.30708 | 11.41491 | 36985 ft | 488 kts | 124° |
| 2026-04-20 13:42 | 43.25209 | 11.53270 | 36986 ft | 488 kts | 123° |
| 2026-04-20 13:43 | 43.21562 | 11.61084 | 36987 ft | 488 kts | 123° |
| 2026-04-20 13:43 | 43.17880 | 11.68917 | 36992 ft | 488 kts | 124° |
| 2026-04-20 13:44 | 43.14206 | 11.76708 | 36993 ft | 488 kts | 124° |
| 2026-04-20 13:44 | 43.10517 | 11.84545 | 36996 ft | 488 kts | 124° |
| 2026-04-20 13:45 | 43.06852 | 11.92312 | 36993 ft | 489 kts | 124° |
| 2026-04-20 13:45 | 43.03145 | 12.00128 | 36999 ft | 489 kts | 124° |
| 2026-04-20 13:46 | 42.99427 | 12.07934 | 36993 ft | 489 kts | 124° |
| 2026-04-20 13:46 | 42.95729 | 12.15676 | 36995 ft | 489 kts | 124° |
| 2026-04-20 13:47 | 42.92004 | 12.23465 | 36996 ft | 489 kts | 124° |
| 2026-04-20 13:47 | 42.88304 | 12.31196 | 36995 ft | 489 kts | 124° |
| 2026-04-20 13:48 | 42.84574 | 12.38957 | 36998 ft | 489 kts | 124° |
| 2026-04-20 13:48 | 42.80831 | 12.46710 | 37001 ft | 489 kts | 124° |
| 2026-04-20 13:49 | 42.77089 | 12.54450 | 37001 ft | 489 kts | 124° |
| 2026-04-20 13:49 | 42.73369 | 12.62148 | 37004 ft | 488 kts | 124° |
| 2026-04-20 13:50 | 42.69627 | 12.69880 | 37010 ft | 488 kts | 124° |
| 2026-04-20 13:50 | 42.65873 | 12.77587 | 37023 ft | 488 kts | 124° |
| 2026-04-20 13:51 | 42.62135 | 12.85232 | 37022 ft | 488 kts | 125° |
| 2026-04-20 13:51 | 42.58364 | 12.92933 | 37021 ft | 488 kts | 124° |
| 2026-04-20 13:52 | 42.54621 | 13.00571 | 37024 ft | 488 kts | 124° |
| 2026-04-20 13:52 | 42.50852 | 13.08243 | 37024 ft | 488 kts | 124° |
| 2026-04-20 13:53 | 42.47082 | 13.15892 | 37022 ft | 488 kts | 124° |
| 2026-04-20 13:53 | 42.43318 | 13.23500 | 37014 ft | 487 kts | 124° |
| 2026-04-20 13:54 | 42.39534 | 13.31137 | 37004 ft | 487 kts | 125° |
| 2026-04-20 13:54 | 42.35750 | 13.38748 | 36998 ft | 487 kts | 125° |
| 2026-04-20 13:55 | 42.31974 | 13.46311 | 36997 ft | 487 kts | 125° |
| 2026-04-20 13:55 | 42.28174 | 13.53924 | 36995 ft | 487 kts | 125° |
| 2026-04-20 13:56 | 42.24397 | 13.61475 | 36990 ft | 487 kts | 125° |
| 2026-04-20 13:56 | 42.20596 | 13.69060 | 36990 ft | 487 kts | 125° |
| 2026-04-20 13:57 | 42.16783 | 13.76640 | 36988 ft | 487 kts | 125° |
| 2026-04-20 13:57 | 42.12992 | 13.84157 | 36990 ft | 487 kts | 125° |
| 2026-04-20 13:58 | 42.09185 | 13.91698 | 36983 ft | 487 kts | 125° |
| 2026-04-20 13:58 | 42.05356 | 13.99245 | 36982 ft | 487 kts | 125° |
| 2026-04-20 13:59 | 42.01542 | 14.06743 | 36985 ft | 487 kts | 125° |
| 2026-04-20 13:59 | 41.97719 | 14.14230 | 36985 ft | 486 kts | 125° |
| 2026-04-20 14:00 | 41.94527 | 14.20483 | 36986 ft | 486 kts | 125° |
| 2026-04-20 14:00 | 41.90070 | 14.29205 | 36984 ft | 486 kts | 125° |
| 2026-04-20 14:01 | 41.86883 | 14.35428 | 36987 ft | 485 kts | 125° |
| 2026-04-20 14:01 | 41.82427 | 14.44099 | 36984 ft | 485 kts | 126° |
| 2026-04-20 14:02 | 41.78585 | 14.51536 | 36991 ft | 484 kts | 126° |
| 2026-04-20 14:02 | 41.75388 | 14.57714 | 36984 ft | 484 kts | 126° |
| 2026-04-20 14:03 | 41.71549 | 14.65124 | 36977 ft | 483 kts | 125° |
| 2026-04-20 14:03 | 41.67704 | 14.72530 | 36985 ft | 483 kts | 126° |
| 2026-04-20 14:04 | 41.63879 | 14.79874 | 36978 ft | 482 kts | 126° |
| 2026-04-20 14:04 | 41.60028 | 14.87244 | 36983 ft | 482 kts | 126° |
| 2026-04-20 14:05 | 41.56204 | 14.94553 | 36984 ft | 481 kts | 126° |
| 2026-04-20 14:05 | 41.52364 | 15.01886 | 36985 ft | 481 kts | 126° |
| 2026-04-20 14:06 | 41.48542 | 15.09163 | 36983 ft | 481 kts | 126° |
| 2026-04-20 14:06 | 41.44685 | 15.16482 | 36977 ft | 480 kts | 126° |
| 2026-04-20 14:07 | 41.40856 | 15.23734 | 36978 ft | 481 kts | 126° |
| 2026-04-20 14:07 | 41.36999 | 15.31013 | 36980 ft | 480 kts | 126° |
| 2026-04-20 14:08 | 41.33133 | 15.38288 | 36982 ft | 480 kts | 126° |
| 2026-04-20 14:08 | 41.29290 | 15.45515 | 36981 ft | 480 kts | 126° |
| 2026-04-20 14:09 | 41.25417 | 15.52774 | 36981 ft | 480 kts | 126° |
| 2026-04-20 14:09 | 41.21564 | 15.59980 | 36976 ft | 480 kts | 126° |
| 2026-04-20 14:10 | 41.17695 | 15.67214 | 36977 ft | 480 kts | 126° |
| 2026-04-20 14:10 | 41.13823 | 15.74431 | 36970 ft | 479 kts | 126° |
| 2026-04-20 14:11 | 41.09962 | 15.81605 | 36973 ft | 479 kts | 126° |
| 2026-04-20 14:11 | 41.06076 | 15.88797 | 36974 ft | 479 kts | 126° |
| 2026-04-20 14:12 | 41.02210 | 15.95940 | 36976 ft | 479 kts | 126° |
| 2026-04-20 14:12 | 40.98316 | 16.03126 | 36976 ft | 479 kts | 127° |
| 2026-04-20 14:13 | 40.94443 | 16.10259 | 36983 ft | 479 kts | 127° |
| 2026-04-20 14:13 | 40.90539 | 16.17438 | 36985 ft | 479 kts | 127° |
| 2026-04-20 14:14 | 40.86635 | 16.24582 | 36988 ft | 479 kts | 127° |
| 2026-04-20 14:14 | 40.82757 | 16.31670 | 36988 ft | 478 kts | 127° |
| 2026-04-20 14:15 | 40.78843 | 16.38827 | 36992 ft | 478 kts | 127° |
| 2026-04-20 14:15 | 40.74933 | 16.45945 | 36990 ft | 478 kts | 127° |
| 2026-04-20 14:16 | 40.71038 | 16.53013 | 36990 ft | 478 kts | 127° |
| 2026-04-20 14:16 | 40.67121 | 16.60107 | 36991 ft | 478 kts | 127° |
| 2026-04-20 14:17 | 40.63193 | 16.67189 | 37056 ft | 478 kts | 127° |
| 2026-04-20 14:17 | 40.59289 | 16.74229 | 37068 ft | 478 kts | 127° |
| 2026-04-20 14:18 | 40.55358 | 16.81321 | 37073 ft | 479 kts | 127° |
| 2026-04-20 14:18 | 40.51415 | 16.88404 | 37066 ft | 479 kts | 127° |
| 2026-04-20 14:19 | 40.47497 | 16.95425 | 37052 ft | 479 kts | 127° |
| 2026-04-20 14:19 | 40.43538 | 17.02491 | 36992 ft | 479 kts | 127° |
| 2026-04-20 14:20 | 40.39599 | 17.09494 | 36985 ft | 479 kts | 127° |
| 2026-04-20 14:20 | 40.35631 | 17.16539 | 36982 ft | 479 kts | 127° |
| 2026-04-20 14:21 | 40.31698 | 17.23537 | 36989 ft | 479 kts | 127° |
| 2026-04-20 14:21 | 40.27739 | 17.30564 | 36985 ft | 479 kts | 127° |
| 2026-04-20 14:22 | 40.23766 | 17.37580 | 36996 ft | 479 kts | 127° |
| 2026-04-20 14:22 | 40.19807 | 17.44561 | 37004 ft | 479 kts | 127° |
| 2026-04-20 14:23 | 40.15820 | 17.51575 | 37000 ft | 480 kts | 127° |
| 2026-04-20 14:23 | 40.11851 | 17.58541 | 37008 ft | 480 kts | 127° |
| 2026-04-20 14:24 | 40.07851 | 17.65542 | 37010 ft | 480 kts | 127° |
| 2026-04-20 14:24 | 40.03849 | 17.72537 | 37008 ft | 480 kts | 127° |
| 2026-04-20 14:25 | 39.99874 | 17.79475 | 37004 ft | 480 kts | 127° |
| 2026-04-20 14:25 | 39.95860 | 17.86460 | 37007 ft | 480 kts | 127° |
| 2026-04-20 14:26 | 39.91845 | 17.93434 | 37013 ft | 480 kts | 127° |
| 2026-04-20 14:26 | 39.87843 | 18.00361 | 37015 ft | 480 kts | 127° |
| 2026-04-20 14:27 | 39.83810 | 18.07323 | 37008 ft | 481 kts | 127° |
| 2026-04-20 14:27 | 39.79776 | 18.14271 | 37013 ft | 481 kts | 128° |
| 2026-04-20 14:28 | 39.75758 | 18.21192 | 37013 ft | 481 kts | 127° |
| 2026-04-20 14:28 | 39.71711 | 18.28136 | 37019 ft | 481 kts | 128° |
| 2026-04-20 14:29 | 39.67681 | 18.35031 | 37022 ft | 481 kts | 128° |
| 2026-04-20 14:29 | 39.63619 | 18.41977 | 37019 ft | 482 kts | 127° |
| 2026-04-20 14:30 | 39.59566 | 18.48903 | 37018 ft | 482 kts | 128° |
| 2026-04-20 14:30 | 39.55519 | 18.55788 | 37025 ft | 482 kts | 128° |
| 2026-04-20 14:31 | 39.51442 | 18.62709 | 37024 ft | 482 kts | 128° |
| 2026-04-20 14:31 | 39.47353 | 18.69632 | 37031 ft | 482 kts | 128° |
| 2026-04-20 14:32 | 39.43296 | 18.76506 | 37034 ft | 483 kts | 128° |
| 2026-04-20 14:32 | 39.39206 | 18.83411 | 37023 ft | 483 kts | 128° |
| 2026-04-20 14:33 | 39.35106 | 18.90302 | 37030 ft | 483 kts | 128° |
| 2026-04-20 14:33 | 39.31022 | 18.97158 | 37027 ft | 483 kts | 128° |
| 2026-04-20 14:34 | 39.26974 | 19.04088 | 37027 ft | 483 kts | 126° |
| 2026-04-20 14:34 | 39.23160 | 19.11229 | 37025 ft | 483 kts | 123° |
| 2026-04-20 14:35 | 39.19427 | 19.18394 | 37025 ft | 483 kts | 124° |
| 2026-04-20 14:35 | 39.15604 | 19.25541 | 37029 ft | 483 kts | 125° |
| 2026-04-20 14:36 | 39.11730 | 19.32644 | 37030 ft | 484 kts | 125° |
| 2026-04-20 14:36 | 39.07887 | 19.39686 | 37028 ft | 484 kts | 125° |
| 2026-04-20 14:37 | 39.04011 | 19.46800 | 37027 ft | 484 kts | 125° |
| 2026-04-20 14:37 | 39.00138 | 19.53897 | 37031 ft | 484 kts | 125° |
| 2026-04-20 14:38 | 38.96276 | 19.60972 | 37031 ft | 485 kts | 125° |
| 2026-04-20 14:38 | 38.92385 | 19.68074 | 37030 ft | 485 kts | 125° |
| 2026-04-20 14:39 | 38.88487 | 19.75167 | 37037 ft | 485 kts | 125° |
| 2026-04-20 14:39 | 38.84609 | 19.82217 | 37037 ft | 485 kts | 125° |
| 2026-04-20 14:40 | 38.80705 | 19.89298 | 37035 ft | 486 kts | 125° |
| 2026-04-20 14:40 | 38.76792 | 19.96381 | 37043 ft | 486 kts | 125° |
| 2026-04-20 14:41 | 38.72901 | 20.03405 | 37044 ft | 486 kts | 125° |
| 2026-04-20 14:41 | 38.68975 | 20.10467 | 37051 ft | 486 kts | 125° |
| 2026-04-20 14:42 | 38.65043 | 20.17534 | 37049 ft | 486 kts | 125° |
| 2026-04-20 14:42 | 38.61124 | 20.24550 | 37055 ft | 486 kts | 126° |
| 2026-04-20 14:43 | 38.57203 | 20.31557 | 37059 ft | 486 kts | 125° |
| 2026-04-20 14:43 | 38.53266 | 20.38609 | 37055 ft | 486 kts | 125° |
| 2026-04-20 14:44 | 38.49319 | 20.45655 | 37049 ft | 486 kts | 126° |
| 2026-04-20 14:44 | 38.45391 | 20.52630 | 37059 ft | 487 kts | 126° |
| 2026-04-20 14:45 | 38.41418 | 20.59657 | 37057 ft | 487 kts | 125° |
| 2026-04-20 14:45 | 38.37459 | 20.66669 | 37065 ft | 487 kts | 126° |
| 2026-04-20 14:46 | 38.33513 | 20.73660 | 37061 ft | 487 kts | 126° |
| 2026-04-20 14:46 | 38.30200 | 20.79498 | 37067 ft | 487 kts | 126° |
| 2026-04-20 14:47 | 38.26217 | 20.86496 | 37065 ft | 487 kts | 126° |
| 2026-04-20 14:48 | 38.20261 | 20.96932 | 37055 ft | 487 kts | 126° |
| 2026-04-20 14:48 | 38.16272 | 21.03920 | 37062 ft | 487 kts | 126° |
| 2026-04-20 14:49 | 38.12278 | 21.10916 | 37065 ft | 487 kts | 126° |
| 2026-04-20 14:49 | 38.08309 | 21.17835 | 37059 ft | 487 kts | 126° |
| 2026-04-20 14:50 | 38.04312 | 21.24785 | 37059 ft | 487 kts | 126° |
| 2026-04-20 14:50 | 38.00313 | 21.31724 | 37049 ft | 487 kts | 126° |
| 2026-04-20 14:51 | 37.96316 | 21.38645 | 37064 ft | 487 kts | 126° |
| 2026-04-20 14:51 | 37.92331 | 21.45532 | 37053 ft | 486 kts | 126° |
| 2026-04-20 14:52 | 37.88316 | 21.52455 | 37062 ft | 486 kts | 126° |
| 2026-04-20 14:52 | 37.84315 | 21.59347 | 37055 ft | 486 kts | 126° |
| 2026-04-20 14:53 | 37.80311 | 21.66215 | 37054 ft | 486 kts | 127° |
| 2026-04-20 14:53 | 37.76288 | 21.73098 | 37047 ft | 486 kts | 126° |
| 2026-04-20 14:54 | 37.72266 | 21.79993 | 37062 ft | 487 kts | 127° |
| 2026-04-20 14:54 | 37.68246 | 21.86878 | 37057 ft | 487 kts | 127° |
| 2026-04-20 14:55 | 37.64222 | 21.93720 | 37049 ft | 487 kts | 127° |
| 2026-04-20 14:55 | 37.60172 | 22.00595 | 37043 ft | 487 kts | 127° |
| 2026-04-20 14:56 | 37.56150 | 22.07408 | 37051 ft | 487 kts | 127° |
| 2026-04-20 14:56 | 37.52093 | 22.14269 | 37034 ft | 487 kts | 127° |
| 2026-04-20 14:57 | 37.48071 | 22.21068 | 37030 ft | 487 kts | 127° |
| 2026-04-20 14:57 | 37.44013 | 22.27913 | 37018 ft | 487 kts | 127° |
| 2026-04-20 14:58 | 37.40251 | 22.34997 | 37026 ft | 486 kts | 115° |
| 2026-04-20 14:58 | 37.37813 | 22.42863 | 37013 ft | 485 kts | 108° |
| 2026-04-20 14:59 | 37.35507 | 22.50837 | 37005 ft | 484 kts | 108° |
| 2026-04-20 14:59 | 37.33193 | 22.58756 | 37005 ft | 485 kts | 109° |
| 2026-04-20 15:00 | 37.30868 | 22.66697 | 36998 ft | 484 kts | 109° |
| 2026-04-20 15:00 | 37.28529 | 22.74659 | 36997 ft | 484 kts | 109° |
| 2026-04-20 15:01 | 37.26193 | 22.82610 | 37007 ft | 485 kts | 109° |
| 2026-04-20 15:01 | 37.23867 | 22.90515 | 36994 ft | 484 kts | 109° |
| 2026-04-20 15:02 | 37.21516 | 22.98469 | 36999 ft | 484 kts | 109° |
| 2026-04-20 15:02 | 37.19154 | 23.06389 | 36997 ft | 485 kts | 109° |
| 2026-04-20 15:03 | 37.16804 | 23.14265 | 36995 ft | 485 kts | 109° |
| 2026-04-20 15:03 | 37.14447 | 23.22201 | 36989 ft | 485 kts | 109° |
| 2026-04-20 15:04 | 37.12077 | 23.30132 | 36984 ft | 485 kts | 109° |
| 2026-04-20 15:04 | 37.09708 | 23.38018 | 36984 ft | 486 kts | 109° |
| 2026-04-20 15:05 | 37.07309 | 23.45962 | 36986 ft | 486 kts | 109° |
| 2026-04-20 15:05 | 37.04934 | 23.53836 | 36992 ft | 486 kts | 109° |
| 2026-04-20 15:06 | 37.02538 | 23.61764 | 36996 ft | 486 kts | 110° |
| 2026-04-20 15:06 | 37.01334 | 23.65733 | 36555 ft | 489 kts | 110° |
| 2026-04-20 15:06 | 37.00123 | 23.69717 | 35920 ft | 489 kts | 109° |
| 2026-04-20 15:06 | 36.98911 | 23.73694 | 35350 ft | 488 kts | 109° |
| 2026-04-20 15:07 | 36.97704 | 23.77650 | 34767 ft | 487 kts | 109° |
| 2026-04-20 15:07 | 36.96492 | 23.81614 | 34178 ft | 486 kts | 109° |
| 2026-04-20 15:07 | 36.95301 | 23.85503 | 33547 ft | 485 kts | 109° |
| 2026-04-20 15:07 | 36.94095 | 23.89431 | 32977 ft | 482 kts | 109° |
| 2026-04-20 15:08 | 36.92896 | 23.93333 | 32397 ft | 479 kts | 109° |
| 2026-04-20 15:08 | 36.91700 | 23.97218 | 31859 ft | 476 kts | 109° |
| 2026-04-20 15:08 | 36.90515 | 24.01073 | 31351 ft | 472 kts | 109° |
| 2026-04-20 15:08 | 36.89340 | 24.04897 | 30844 ft | 469 kts | 109° |
| 2026-04-20 15:09 | 36.88188 | 24.08638 | 30351 ft | 465 kts | 109° |
| 2026-04-20 15:09 | 36.87028 | 24.12405 | 29814 ft | 462 kts | 109° |
| 2026-04-20 15:09 | 36.85875 | 24.16146 | 29335 ft | 457 kts | 110° |
| 2026-04-20 15:09 | 36.84732 | 24.19837 | 28864 ft | 452 kts | 110° |
| 2026-04-20 15:10 | 36.83617 | 24.23437 | 28409 ft | 446 kts | 110° |
| 2026-04-20 15:10 | 36.82504 | 24.27029 | 27946 ft | 441 kts | 110° |
| 2026-04-20 15:10 | 36.81401 | 24.30592 | 27487 ft | 437 kts | 110° |
| 2026-04-20 15:10 | 36.80308 | 24.34120 | 27028 ft | 433 kts | 110° |
| 2026-04-20 15:11 | 36.79224 | 24.37611 | 26555 ft | 429 kts | 110° |
| 2026-04-20 15:11 | 36.78143 | 24.41077 | 26089 ft | 426 kts | 110° |
| 2026-04-20 15:11 | 36.77080 | 24.44469 | 25612 ft | 423 kts | 110° |
| 2026-04-20 15:11 | 36.76010 | 24.47882 | 25115 ft | 421 kts | 110° |
| 2026-04-20 15:12 | 36.75005 | 24.51300 | 24609 ft | 418 kts | 104° |
| 2026-04-20 15:12 | 36.74459 | 24.54839 | 24108 ft | 414 kts | 94° |
| 2026-04-20 15:12 | 36.74126 | 24.58401 | 23598 ft | 413 kts | 94° |
| 2026-04-20 15:12 | 36.73778 | 24.61960 | 23030 ft | 411 kts | 95° |
| 2026-04-20 15:13 | 36.73422 | 24.65489 | 22539 ft | 408 kts | 95° |
| 2026-04-20 15:13 | 36.73061 | 24.68995 | 22039 ft | 406 kts | 95° |
| 2026-04-20 15:13 | 36.72708 | 24.72428 | 21584 ft | 403 kts | 95° |
| 2026-04-20 15:13 | 36.72355 | 24.75884 | 21100 ft | 401 kts | 95° |
| 2026-04-20 15:14 | 36.72007 | 24.79311 | 20656 ft | 397 kts | 95° |
| 2026-04-20 15:14 | 36.71661 | 24.82714 | 20294 ft | 392 kts | 95° |
| 2026-04-20 15:14 | 36.71321 | 24.86068 | 19710 ft | 386 kts | 95° |
| 2026-04-20 15:14 | 36.70986 | 24.89356 | 19148 ft | 377 kts | 95° |
| 2026-04-20 15:15 | 36.70663 | 24.92507 | 18707 ft | 365 kts | 95° |
| 2026-04-20 15:15 | 36.70344 | 24.95602 | 18258 ft | 354 kts | 95° |
| 2026-04-20 15:15 | 36.70035 | 24.98606 | 17786 ft | 344 kts | 95° |
| 2026-04-20 15:15 | 36.69732 | 25.01562 | 17352 ft | 343 kts | 95° |
| 2026-04-20 15:16 | 36.69430 | 25.04517 | 16924 ft | 343 kts | 95° |
| 2026-04-20 15:16 | 36.69128 | 25.07440 | 16502 ft | 344 kts | 95° |
| 2026-04-20 15:16 | 36.68819 | 25.10408 | 16080 ft | 345 kts | 95° |
| 2026-04-20 15:16 | 36.68506 | 25.13380 | 15652 ft | 346 kts | 96° |
| 2026-04-20 15:17 | 36.67908 | 25.16286 | 15224 ft | 348 kts | 111° |
| 2026-04-20 15:17 | 36.66734 | 25.18936 | 14795 ft | 350 kts | 126° |
| 2026-04-20 15:17 | 36.65063 | 25.21141 | 14366 ft | 351 kts | 140° |
| 2026-04-20 15:17 | 36.63200 | 25.23112 | 13928 ft | 351 kts | 140° |
| 2026-04-20 15:18 | 36.61357 | 25.25065 | 13490 ft | 351 kts | 140° |
| 2026-04-20 15:18 | 36.59506 | 25.27032 | 13067 ft | 349 kts | 140° |
| 2026-04-20 15:18 | 36.57668 | 25.28987 | 12676 ft | 346 kts | 140° |
| 2026-04-20 15:18 | 36.55872 | 25.30896 | 12157 ft | 338 kts | 140° |
| 2026-04-20 15:19 | 36.54110 | 25.32768 | 11686 ft | 327 kts | 140° |
| 2026-04-20 15:19 | 36.52409 | 25.34575 | 11267 ft | 316 kts | 140° |
| 2026-04-20 15:19 | 36.50763 | 25.36319 | 10845 ft | 306 kts | 140° |
| 2026-04-20 15:19 | 36.49162 | 25.38011 | 10436 ft | 297 kts | 140° |
| 2026-04-20 15:20 | 36.47608 | 25.39657 | 10043 ft | 289 kts | 140° |
| 2026-04-20 15:20 | 36.46103 | 25.41254 | 9611 ft | 289 kts | 140° |
| 2026-04-20 15:20 | 36.44566 | 25.42882 | 9187 ft | 291 kts | 140° |
| 2026-04-20 15:20 | 36.43020 | 25.44517 | 8762 ft | 292 kts | 140° |
| 2026-04-20 15:21 | 36.41468 | 25.46158 | 8333 ft | 293 kts | 140° |
| 2026-04-20 15:21 | 36.39929 | 25.47832 | 7899 ft | 294 kts | 135° |
| 2026-04-20 15:21 | 36.38671 | 25.49844 | 7459 ft | 295 kts | 121° |
| 2026-04-20 15:21 | 36.37586 | 25.52002 | 7080 ft | 293 kts | 122° |
| 2026-04-20 15:22 | 36.36494 | 25.54147 | 6669 ft | 293 kts | 122° |
| 2026-04-20 15:22 | 36.35403 | 25.56281 | 6214 ft | 293 kts | 122° |
| 2026-04-20 15:22 | 36.34329 | 25.58378 | 6067 ft | 281 kts | 122° |
| 2026-04-20 15:22 | 36.33318 | 25.60355 | 5941 ft | 269 kts | 122° |
| 2026-04-20 15:23 | 36.32337 | 25.62276 | 5831 ft | 257 kts | 122° |
| 2026-04-20 15:23 | 36.31400 | 25.64114 | 5761 ft | 246 kts | 122° |
| 2026-04-20 15:23 | 36.30280 | 25.65661 | 5698 ft | 240 kts | 152° |
| 2026-04-20 15:23 | 36.28695 | 25.66187 | 5654 ft | 237 kts | 183° |
| 2026-04-20 15:24 | 36.27119 | 25.65789 | 5607 ft | 227 kts | 208° |
| 2026-04-20 15:24 | 36.25871 | 25.64706 | 5549 ft | 211 kts | 231° |
| 2026-04-20 15:24 | 36.25121 | 25.63232 | 5521 ft | 194 kts | 252° |
| 2026-04-20 15:24 | 36.24879 | 25.61696 | 5476 ft | 175 kts | 272° |
| 2026-04-20 15:25 | 36.25051 | 25.60276 | 5413 ft | 160 kts | 290° |
| 2026-04-20 15:25 | 36.25524 | 25.59098 | 5394 ft | 149 kts | 305° |
| 2026-04-20 15:25 | 36.26206 | 25.58186 | 5373 ft | 143 kts | 320° |
| 2026-04-20 15:25 | 36.27037 | 25.57521 | 5342 ft | 141 kts | 327° |
| 2026-04-20 15:26 | 36.27876 | 25.56888 | 5293 ft | 142 kts | 327° |
| 2026-04-20 15:26 | 36.28720 | 25.56228 | 4955 ft | 142 kts | 324° |
| 2026-04-20 15:26 | 36.29532 | 25.55571 | 4620 ft | 140 kts | 326° |
| 2026-04-20 15:26 | 36.30356 | 25.54935 | 4311 ft | 139 kts | 326° |
| 2026-04-20 15:27 | 36.31149 | 25.54234 | 3858 ft | 144 kts | 319° |
| 2026-04-20 15:27 | 36.31917 | 25.53391 | 3327 ft | 149 kts | 315° |
| 2026-04-20 15:27 | 36.32635 | 25.52363 | 2551 ft | 165 kts | 308° |
| 2026-04-20 15:27 | 36.33363 | 25.51283 | 2031 ft | 161 kts | 313° |
| 2026-04-20 15:28 | 36.34238 | 25.50458 | 1551 ft | 157 kts | 333° |
| 2026-04-20 15:28 | 36.35269 | 25.50069 | 1129 ft | 152 kts | 343° |
| 2026-04-20 15:28 | 36.36259 | 25.49699 | 776 ft | 144 kts | 335° |
| 2026-04-20 15:28 | 36.37163 | 25.49248 | 520 ft | 138 kts | 335° |
| 2026-04-20 15:29 | 36.38048 | 25.48806 | 271 ft | 136 kts | 333° |
| 2026-04-20 15:29 | 36.38924 | 25.48394 | 120 ft | 136 kts | 334° |
| 2026-04-20 15:29 | 36.39778 | 25.47995 | 86 ft | 119 kts | 336° |
| 2026-04-20 15:29 | 36.40598 | 25.47649 | 454 ft | 130 kts | 336° |
| 2026-04-20 15:30 | 36.41503 | 25.47301 | 1038 ft | 149 kts | 340° |
| 2026-04-20 15:30 | 36.42573 | 25.46887 | 1690 ft | 164 kts | 339° |
| 2026-04-20 15:30 | 36.43682 | 25.46440 | 2303 ft | 172 kts | 339° |
| 2026-04-20 15:30 | 36.44879 | 25.45924 | 2597 ft | 195 kts | 337° |
| 2026-04-20 15:31 | 36.46199 | 25.45303 | 2600 ft | 210 kts | 336° |
| 2026-04-20 15:31 | 36.47574 | 25.44636 | 2598 ft | 213 kts | 336° |
| 2026-04-20 15:31 | 36.48955 | 25.43955 | 2579 ft | 213 kts | 336° |
| 2026-04-20 15:31 | 36.50339 | 25.43270 | 2600 ft | 213 kts | 336° |
| 2026-04-20 15:32 | 36.51254 | 25.42821 | 2602 ft | 213 kts | 336° |
| 2026-04-20 15:32 | 36.52627 | 25.42122 | 2600 ft | 212 kts | 330° |
| 2026-04-20 15:32 | 36.53964 | 25.40440 | 2602 ft | 209 kts | 294° |
| 2026-04-20 15:32 | 36.54222 | 25.39261 | 2601 ft | 209 kts | 275° |
| 2026-04-20 15:33 | 36.53994 | 25.37512 | 2366 ft | 210 kts | 246° |
| 2026-04-20 15:33 | 36.53067 | 25.36122 | 2076 ft | 213 kts | 217° |
| 2026-04-20 15:33 | 36.51675 | 25.35488 | 1903 ft | 217 kts | 186° |
| 2026-04-20 15:33 | 36.50181 | 25.35833 | 2069 ft | 225 kts | 156° |
| 2026-04-20 15:34 | 36.48941 | 25.37066 | 2667 ft | 232 kts | 137° |
| 2026-04-20 15:34 | 36.47781 | 25.38462 | 3546 ft | 232 kts | 137° |
| 2026-04-20 15:34 | 36.46612 | 25.39848 | 4186 ft | 230 kts | 137° |
| 2026-04-20 15:34 | 36.45454 | 25.41211 | 3916 ft | 234 kts | 137° |
| 2026-04-20 15:35 | 36.44282 | 25.42590 | 3935 ft | 234 kts | 137° |
| 2026-04-20 15:35 | 36.43095 | 25.43993 | 3952 ft | 236 kts | 137° |
| 2026-04-20 15:35 | 36.41909 | 25.45397 | 3955 ft | 235 kts | 137° |
| 2026-04-20 15:35 | 36.40722 | 25.46800 | 3954 ft | 235 kts | 137° |
| 2026-04-20 15:36 | 36.39542 | 25.48197 | 3802 ft | 234 kts | 137° |
| 2026-04-20 15:36 | 36.38255 | 25.49411 | 3528 ft | 231 kts | 160° |
| 2026-04-20 15:36 | 36.36740 | 25.50056 | 3244 ft | 230 kts | 156° |
| 2026-04-20 15:36 | 36.35624 | 25.51403 | 3012 ft | 231 kts | 115° |
| 2026-04-20 15:37 | 36.34995 | 25.53246 | 2936 ft | 232 kts | 120° |
| 2026-04-20 15:37 | 36.34129 | 25.54941 | 2952 ft | 233 kts | 118° |
| 2026-04-20 15:37 | 36.33413 | 25.56749 | 2952 ft | 233 kts | 115° |
| 2026-04-20 15:37 | 36.32738 | 25.58567 | 2852 ft | 229 kts | 114° |
| 2026-04-20 15:38 | 36.32097 | 25.60299 | 2675 ft | 213 kts | 114° |
| 2026-04-20 15:38 | 36.31512 | 25.61899 | 2521 ft | 196 kts | 114° |
| 2026-04-20 15:38 | 36.30967 | 25.63392 | 2337 ft | 190 kts | 115° |
| 2026-04-20 15:38 | 36.30433 | 25.64880 | 2138 ft | 186 kts | 114° |
| 2026-04-20 15:39 | 36.29790 | 25.66212 | 2034 ft | 178 kts | 141° |
| 2026-04-20 15:39 | 36.28689 | 25.66738 | 1972 ft | 169 kts | 182° |
| 2026-04-20 15:39 | 36.27525 | 25.66630 | 1970 ft | 168 kts | 192° |
| 2026-04-20 15:39 | 36.26507 | 25.66044 | 1961 ft | 161 kts | 227° |
| 2026-04-20 15:40 | 36.25802 | 25.65010 | 1964 ft | 153 kts | 237° |
| 2026-04-20 15:40 | 36.25183 | 25.63952 | 1968 ft | 152 kts | 238° |
| 2026-04-20 15:40 | 36.24767 | 25.62777 | 1948 ft | 149 kts | 271° |
| 2026-04-20 15:40 | 36.25014 | 25.61540 | 1970 ft | 149 kts | 291° |
| 2026-04-20 15:41 | 36.25438 | 25.60368 | 1970 ft | 149 kts | 295° |
| 2026-04-20 15:41 | 36.25878 | 25.59220 | 1960 ft | 149 kts | 296° |
| 2026-04-20 15:41 | 36.26534 | 25.58245 | 1962 ft | 150 kts | 321° |
| 2026-04-20 15:41 | 36.27413 | 25.57549 | 1985 ft | 150 kts | 327° |
| 2026-04-20 15:42 | 36.28321 | 25.56908 | 1962 ft | 146 kts | 328° |
| 2026-04-20 15:42 | 36.29195 | 25.56303 | 1956 ft | 142 kts | 328° |
| 2026-04-20 15:42 | 36.30049 | 25.55714 | 1929 ft | 138 kts | 327° |
| 2026-04-20 15:42 | 36.30808 | 25.55022 | 1878 ft | 134 kts | 317° |
| 2026-04-20 15:43 | 36.31497 | 25.54244 | 1805 ft | 134 kts | 312° |
| 2026-04-20 15:43 | 36.32083 | 25.53376 | 1634 ft | 133 kts | 306° |
| 2026-04-20 15:43 | 36.32644 | 25.52469 | 1416 ft | 132 kts | 308° |
| 2026-04-20 15:43 | 36.33252 | 25.51611 | 1206 ft | 132 kts | 311° |
| 2026-04-20 15:44 | 36.33930 | 25.50836 | 1004 ft | 133 kts | 321° |
| 2026-04-20 15:44 | 36.34759 | 25.50313 | 818 ft | 136 kts | 338° |
| 2026-04-20 15:44 | 36.35663 | 25.49956 | 663 ft | 136 kts | 336° |
| 2026-04-20 15:44 | 36.36543 | 25.49527 | 486 ft | 137 kts | 335° |
| 2026-04-20 15:45 | 36.37435 | 25.49103 | 349 ft | 138 kts | 334° |
| 2026-04-20 15:45 | 36.38322 | 25.48675 | 211 ft | 138 kts | 334° |
| 2026-04-20 15:45 | 36.39229 | 25.48246 | 60 ft | 136 kts | 334° |
| 2026-04-20 15:45 | 36.39996 | 25.47878 | 88 ft | 98 kts | 339° |
| 2026-04-20 15:46 | 36.40298 | 25.47737 | 92 ft | 17 kts | 339° |
| 2026-04-20 15:46 | 36.40310 | 25.47661 | 92 ft | 7 kts | 250° |
| 2026-04-20 15:46 | 36.40298 | 25.47623 | 90 ft | 1 kts | 249° |
| 2026-04-20 15:46 | 36.40294 | 25.47609 | 91 ft | 3 kts | 249° |
| 2026-04-20 15:47 | 36.40286 | 25.47580 | 91 ft | 4 kts | 250° |
| 2026-04-20 15:47 | 36.40273 | 25.47536 | 90 ft | 7 kts | 250° |
| 2026-04-20 15:47 | 36.40274 | 25.47482 | 89 ft | 6 kts | 312° |
| 2026-04-20 15:47 | 36.40305 | 25.47462 | 91 ft | 3 kts | 336° |
| 2026-04-20 15:48 | 36.40323 | 25.47454 | 90 ft | 2 kts | 340° |
| 2026-04-20 15:48 | 36.40340 | 25.47446 | 92 ft | 4 kts | 340° |
| 2026-04-20 15:48 | 36.40355 | 25.47430 | 90 ft | 2 kts | 298° |
| 2026-04-20 15:48 | 36.40354 | 25.47417 | 91 ft | 2 kts | 264° |
| 2026-04-20 15:49 | 36.40348 | 25.47398 | 90 ft | 3 kts | 246° |
| 2026-04-20 15:49 | 36.40345 | 25.47388 | 90 ft | 0 kts | 248° |
| 2026-04-20 15:49 | 36.40344 | 25.47387 | 90 ft | 1 kts | 248° |
| 2026-04-20 15:50 | 36.40342 | 25.47380 | 90 ft | 1 kts | 248° |